Kiritimati, Kiribati

9:48 PM LINT on February 11, 2016 (GMT +1400)
Cassidy International | | Change Station
CLOSE
Current Station
Airport
Location: Kiritimati,
Elevation: 3 ft
Nearby Weather Stations

Elev 3 ft 1.99 °N, 157.35 °W | Updated 48 minutes ago

Mostly Cloudy
Mostly Cloudy
81 °F
Feels Like 88 °F
N
12
Wind Variable Wind from East

Today
High -- | Low -- °F
--% Chance of Precip.
Yesterday
High -- | Low -- °F
Precip. -- in
Pressure 29.74 in
Visibility 6.2 miles
Clouds Few 1800 ft
Mostly Cloudy 30000 ft
Heat Index 88 °F
Dew Point 79 °F
Humidity 94%
Rainfall 0.00 in
Snow Depth Not available.
6:42 AM 6:45 PM
Waxing Crescent, 10% visible
METAR PLCH 110700Z 08010KT 9999 FEW018CB BKN300 27/26 Q1007
Pressure 29.74 in
Visibility 6.2 miles
Clouds Few 1800 ft
Mostly Cloudy 30000 ft
Heat Index 88 °F
Dew Point 79 °F
Humidity 94%
Rainfall 0.00 in
Snow Depth Not available.
6:42 AM 6:45 PM
Waxing Crescent, 10% visible
METAR PLCH 110700Z 08010KT 9999 FEW018CB BKN300 27/26 Q1007

10-Day Weather Forecast

No radar image for this location.
×

Almanac

Astronomy

Feb. 11, 2016 Rise Set
Actual Time
Civil Twilight
Nautical Twilight
Astronomical Twilight
Moon
Length of Visible Light
Length of Day
Tomorrow will be .
, % of the Moon is Illuminated

Today's Extremes

Country Highs Country Lows

Community

WunderPhotos

Upload Photos

1,892,030 photos uploaded!

WunderBlog® & News

Nearby

Air Quality

  Air Quality AQ Index Pollutant
Not available.

Snow Depth

Station Depth Elevation

Earthquake Activity

City Distance Mag. Time & Date
Minimum magnitude displayed is 2.5.

Coastal Water Temperatures

Place Temperature

Stations

Nearby Weather Stations

Station Location Temp. Windchill Dew Point Humidity Wind Precip. Elev Updated Type